sensor_id;sensor_type;location;lat;lon;timestamp;temperature;humidity
23231;DHT22;11784;49.818;8.632;2022-07-06T00:01:31;21.90;64.10
23231;DHT22;11784;49.818;8.632;2022-07-06T00:03:56;21.90;64.50
23231;DHT22;11784;49.818;8.632;2022-07-06T00:06:22;21.90;65.00
23231;DHT22;11784;49.818;8.632;2022-07-06T00:08:48;21.90;65.20
23231;DHT22;11784;49.818;8.632;2022-07-06T00:11:14;21.80;65.10
23231;DHT22;11784;49.818;8.632;2022-07-06T00:13:39;21.80;65.70
23231;DHT22;11784;49.818;8.632;2022-07-06T00:16:05;21.80;66.40
23231;DHT22;11784;49.818;8.632;2022-07-06T00:18:31;21.80;65.90
23231;DHT22;11784;49.818;8.632;2022-07-06T00:20:57;21.80;65.30
23231;DHT22;11784;49.818;8.632;2022-07-06T00:23:22;21.80;64.50
23231;DHT22;11784;49.818;8.632;2022-07-06T00:25:48;21.70;64.80
23231;DHT22;11784;49.818;8.632;2022-07-06T00:28:14;21.70;65.00
23231;DHT22;11784;49.818;8.632;2022-07-06T00:30:40;21.70;64.80
23231;DHT22;11784;49.818;8.632;2022-07-06T00:33:06;21.70;65.10
23231;DHT22;11784;49.818;8.632;2022-07-06T00:35:32;21.70;64.40
23231;DHT22;11784;49.818;8.632;2022-07-06T00:37:57;21.60;64.70
23231;DHT22;11784;49.818;8.632;2022-07-06T00:40:23;21.60;65.50
23231;DHT22;11784;49.818;8.632;2022-07-06T00:42:49;21.60;65.40
23231;DHT22;11784;49.818;8.632;2022-07-06T00:45:16;21.60;64.80
23231;DHT22;11784;49.818;8.632;2022-07-06T00:47:42;21.60;64.40
23231;DHT22;11784;49.818;8.632;2022-07-06T00:50:10;21.60;65.10
23231;DHT22;11784;49.818;8.632;2022-07-06T00:53:13;21.60;65.20
23231;DHT22;11784;49.818;8.632;2022-07-06T00:55:35;21.60;65.10
23231;DHT22;11784;49.818;8.632;2022-07-06T00:58:04;21.60;66.00
23231;DHT22;11784;49.818;8.632;2022-07-06T01:00:30;21.50;62.90
23231;DHT22;11784;49.818;8.632;2022-07-06T01:02:56;21.50;64.50
23231;DHT22;11784;49.818;8.632;2022-07-06T01:05:22;21.50;64.20
23231;DHT22;11784;49.818;8.632;2022-07-06T01:07:49;21.50;64.20
23231;DHT22;11784;49.818;8.632;2022-07-06T01:10:16;21.50;62.80
23231;DHT22;11784;49.818;8.632;2022-07-06T01:12:44;21.40;63.30
23231;DHT22;11784;49.818;8.632;2022-07-06T01:15:21;21.40;63.90
23231;DHT22;11784;49.818;8.632;2022-07-06T01:17:47;21.40;64.20
23231;DHT22;11784;49.818;8.632;2022-07-06T01:20:14;21.40;64.50
23231;DHT22;11784;49.818;8.632;2022-07-06T01:22:40;21.40;64.30
23231;DHT22;11784;49.818;8.632;2022-07-06T01:25:07;21.30;65.00
23231;DHT22;11784;49.818;8.632;2022-07-06T01:27:34;21.30;64.80
23231;DHT22;11784;49.818;8.632;2022-07-06T01:30:04;21.30;63.40
23231;DHT22;11784;49.818;8.632;2022-07-06T01:32:30;21.30;65.20
23231;DHT22;11784;49.818;8.632;2022-07-06T01:34:55;21.20;65.40
23231;DHT22;11784;49.818;8.632;2022-07-06T01:37:21;21.30;64.10
23231;DHT22;11784;49.818;8.632;2022-07-06T01:39:46;21.20;65.00
23231;DHT22;11784;49.818;8.632;2022-07-06T01:42:12;21.20;65.80
23231;DHT22;11784;49.818;8.632;2022-07-06T01:44:37;21.10;65.40
23231;DHT22;11784;49.818;8.632;2022-07-06T01:47:03;21.10;65.40
23231;DHT22;11784;49.818;8.632;2022-07-06T01:49:28;21.10;65.70
23231;DHT22;11784;49.818;8.632;2022-07-06T01:51:54;21.10;65.40
23231;DHT22;11784;49.818;8.632;2022-07-06T01:54:19;21.10;65.30
23231;DHT22;11784;49.818;8.632;2022-07-06T01:56:45;21.00;64.40
23231;DHT22;11784;49.818;8.632;2022-07-06T01:59:10;21.00;64.80
23231;DHT22;11784;49.818;8.632;2022-07-06T02:01:36;21.00;63.90
23231;DHT22;11784;49.818;8.632;2022-07-06T02:04:01;21.00;65.20
23231;DHT22;11784;49.818;8.632;2022-07-06T02:06:27;20.90;66.40
23231;DHT22;11784;49.818;8.632;2022-07-06T02:08:52;20.90;67.00
23231;DHT22;11784;49.818;8.632;2022-07-06T02:11:19;21.00;64.90
23231;DHT22;11784;49.818;8.632;2022-07-06T02:13:45;20.90;65.20
23231;DHT22;11784;49.818;8.632;2022-07-06T02:16:10;20.90;64.90
23231;DHT22;11784;49.818;8.632;2022-07-06T02:18:36;20.90;66.10
23231;DHT22;11784;49.818;8.632;2022-07-06T02:21:03;20.90;65.00
23231;DHT22;11784;49.818;8.632;2022-07-06T02:23:29;20.90;65.70
23231;DHT22;11784;49.818;8.632;2022-07-06T02:25:54;20.80;65.70
23231;DHT22;11784;49.818;8.632;2022-07-06T02:28:20;20.80;66.40
23231;DHT22;11784;49.818;8.632;2022-07-06T02:30:46;20.80;66.50
23231;DHT22;11784;49.818;8.632;2022-07-06T02:33:11;20.70;67.30
23231;DHT22;11784;49.818;8.632;2022-07-06T02:35:37;20.70;67.10
23231;DHT22;11784;49.818;8.632;2022-07-06T02:38:07;20.70;66.90
23231;DHT22;11784;49.818;8.632;2022-07-06T02:40:33;20.70;66.40
23231;DHT22;11784;49.818;8.632;2022-07-06T02:42:58;20.60;67.00
23231;DHT22;11784;49.818;8.632;2022-07-06T02:45:24;20.60;67.50
23231;DHT22;11784;49.818;8.632;2022-07-06T02:47:49;20.60;66.60
23231;DHT22;11784;49.818;8.632;2022-07-06T02:50:16;20.60;65.40
23231;DHT22;11784;49.818;8.632;2022-07-06T02:52:42;20.50;66.50
23231;DHT22;11784;49.818;8.632;2022-07-06T02:55:08;20.50;66.10
23231;DHT22;11784;49.818;8.632;2022-07-06T02:57:33;20.50;66.90
23231;DHT22;11784;49.818;8.632;2022-07-06T02:59:59;20.50;67.60
23231;DHT22;11784;49.818;8.632;2022-07-06T03:02:24;20.50;66.60
23231;DHT22;11784;49.818;8.632;2022-07-06T03:04:50;20.50;66.90
23231;DHT22;11784;49.818;8.632;2022-07-06T03:07:16;20.40;68.20
23231;DHT22;11784;49.818;8.632;2022-07-06T03:09:41;20.40;67.90
23231;DHT22;11784;49.818;8.632;2022-07-06T03:12:07;20.40;68.00
23231;DHT22;11784;49.818;8.632;2022-07-06T03:14:33;20.50;67.40
23231;DHT22;11784;49.818;8.632;2022-07-06T03:16:58;20.40;67.70
23231;DHT22;11784;49.818;8.632;2022-07-06T03:19:24;20.40;67.30
23231;DHT22;11784;49.818;8.632;2022-07-06T03:21:49;20.40;66.90
23231;DHT22;11784;49.818;8.632;2022-07-06T03:24:15;20.40;66.90
23231;DHT22;11784;49.818;8.632;2022-07-06T03:26:41;20.40;67.00
23231;DHT22;11784;49.818;8.632;2022-07-06T03:29:08;20.30;66.80
23231;DHT22;11784;49.818;8.632;2022-07-06T03:31:33;20.40;66.60
23231;DHT22;11784;49.818;8.632;2022-07-06T03:34:00;20.30;66.20
23231;DHT22;11784;49.818;8.632;2022-07-06T03:36:26;20.30;66.90
23231;DHT22;11784;49.818;8.632;2022-07-06T03:38:51;20.30;67.40
23231;DHT22;11784;49.818;8.632;2022-07-06T03:41:16;20.20;67.50
23231;DHT22;11784;49.818;8.632;2022-07-06T03:43:42;20.20;67.00
23231;DHT22;11784;49.818;8.632;2022-07-06T03:46:08;20.20;65.50
23231;DHT22;11784;49.818;8.632;2022-07-06T03:48:33;20.20;66.20
23231;DHT22;11784;49.818;8.632;2022-07-06T03:50:59;20.30;65.70
23231;DHT22;11784;49.818;8.632;2022-07-06T03:53:24;20.20;66.30
23231;DHT22;11784;49.818;8.632;2022-07-06T03:55:50;20.20;67.20
23231;DHT22;11784;49.818;8.632;2022-07-06T03:58:34;20.20;66.40
23231;DHT22;11784;49.818;8.632;2022-07-06T04:00:59;20.20;66.20
23231;DHT22;11784;49.818;8.632;2022-07-06T04:03:25;20.20;64.80
23231;DHT22;11784;49.818;8.632;2022-07-06T04:05:51;20.10;66.10
23231;DHT22;11784;49.818;8.632;2022-07-06T04:08:16;20.20;65.00
23231;DHT22;11784;49.818;8.632;2022-07-06T04:10:42;20.20;66.40
23231;DHT22;11784;49.818;8.632;2022-07-06T04:13:07;20.10;65.10
23231;DHT22;11784;49.818;8.632;2022-07-06T04:15:33;20.10;66.50
23231;DHT22;11784;49.818;8.632;2022-07-06T04:17:58;20.10;66.40
23231;DHT22;11784;49.818;8.632;2022-07-06T04:20:25;20.10;65.50
23231;DHT22;11784;49.818;8.632;2022-07-06T04:22:53;20.10;65.40
23231;DHT22;11784;49.818;8.632;2022-07-06T04:25:19;20.00;65.00
23231;DHT22;11784;49.818;8.632;2022-07-06T04:27:45;20.00;66.40
23231;DHT22;11784;49.818;8.632;2022-07-06T04:30:11;20.00;65.90
23231;DHT22;11784;49.818;8.632;2022-07-06T04:32:37;20.00;67.70
23231;DHT22;11784;49.818;8.632;2022-07-06T04:35:03;20.00;66.90
23231;DHT22;11784;49.818;8.632;2022-07-06T04:37:29;20.10;64.00
23231;DHT22;11784;49.818;8.632;2022-07-06T04:39:55;20.00;64.70
23231;DHT22;11784;49.818;8.632;2022-07-06T04:42:21;20.00;64.70
23231;DHT22;11784;49.818;8.632;2022-07-06T04:44:46;20.00;65.50
23231;DHT22;11784;49.818;8.632;2022-07-06T04:47:12;20.00;65.30
23231;DHT22;11784;49.818;8.632;2022-07-06T04:49:38;20.00;66.10
23231;DHT22;11784;49.818;8.632;2022-07-06T04:52:04;20.00;66.80
23231;DHT22;11784;49.818;8.632;2022-07-06T04:54:30;20.00;66.10
23231;DHT22;11784;49.818;8.632;2022-07-06T04:56:56;20.10;66.10
23231;DHT22;11784;49.818;8.632;2022-07-06T04:59:21;20.10;65.40
23231;DHT22;11784;49.818;8.632;2022-07-06T05:01:47;20.10;65.50
23231;DHT22;11784;49.818;8.632;2022-07-06T05:04:12;20.10;65.80
23231;DHT22;11784;49.818;8.632;2022-07-06T05:06:38;20.10;65.30
23231;DHT22;11784;49.818;8.632;2022-07-06T05:09:05;20.20;65.10
23231;DHT22;11784;49.818;8.632;2022-07-06T05:11:30;20.20;65.30
23231;DHT22;11784;49.818;8.632;2022-07-06T05:13:56;20.20;66.30
23231;DHT22;11784;49.818;8.632;2022-07-06T05:16:21;20.20;66.10
23231;DHT22;11784;49.818;8.632;2022-07-06T05:18:47;20.20;66.30
23231;DHT22;11784;49.818;8.632;2022-07-06T05:21:13;20.20;64.50
23231;DHT22;11784;49.818;8.632;2022-07-06T05:23:39;20.30;65.40
23231;DHT22;11784;49.818;8.632;2022-07-06T05:26:05;20.30;63.50
23231;DHT22;11784;49.818;8.632;2022-07-06T05:28:31;20.30;65.00
23231;DHT22;11784;49.818;8.632;2022-07-06T05:30:57;20.30;63.10
23231;DHT22;11784;49.818;8.632;2022-07-06T05:33:22;20.30;63.40
23231;DHT22;11784;49.818;8.632;2022-07-06T05:35:48;20.20;63.90
23231;DHT22;11784;49.818;8.632;2022-07-06T05:38:13;20.20;63.60
23231;DHT22;11784;49.818;8.632;2022-07-06T05:40:39;20.20;63.60
23231;DHT22;11784;49.818;8.632;2022-07-06T05:43:04;20.20;63.60
23231;DHT22;11784;49.818;8.632;2022-07-06T05:45:30;20.10;63.40
23231;DHT22;11784;49.818;8.632;2022-07-06T05:47:55;20.10;64.00
23231;DHT22;11784;49.818;8.632;2022-07-06T05:50:40;20.10;63.80
23231;DHT22;11784;49.818;8.632;2022-07-06T05:53:07;20.10;64.10
23231;DHT22;11784;49.818;8.632;2022-07-06T05:55:32;20.10;64.50
23231;DHT22;11784;49.818;8.632;2022-07-06T05:57:58;20.10;64.20
23231;DHT22;11784;49.818;8.632;2022-07-06T06:00:25;20.10;64.40
23231;DHT22;11784;49.818;8.632;2022-07-06T06:02:52;20.10;64.50
23231;DHT22;11784;49.818;8.632;2022-07-06T06:05:17;20.10;64.50
23231;DHT22;11784;49.818;8.632;2022-07-06T06:07:44;20.10;64.20
23231;DHT22;11784;49.818;8.632;2022-07-06T06:10:12;20.20;65.50
23231;DHT22;11784;49.818;8.632;2022-07-06T06:12:39;20.20;64.50
23231;DHT22;11784;49.818;8.632;2022-07-06T06:15:05;20.30;64.50
23231;DHT22;11784;49.818;8.632;2022-07-06T06:17:31;20.30;63.70
23231;DHT22;11784;49.818;8.632;2022-07-06T06:19:57;20.30;63.70
23231;DHT22;11784;49.818;8.632;2022-07-06T06:22:22;20.40;63.20
23231;DHT22;11784;49.818;8.632;2022-07-06T06:24:48;20.40;64.70
23231;DHT22;11784;49.818;8.632;2022-07-06T06:27:14;20.40;62.60
23231;DHT22;11784;49.818;8.632;2022-07-06T06:29:40;20.40;62.40
23231;DHT22;11784;49.818;8.632;2022-07-06T06:32:07;20.40;63.10
23231;DHT22;11784;49.818;8.632;2022-07-06T06:34:32;20.40;62.70
23231;DHT22;11784;49.818;8.632;2022-07-06T06:36:58;20.50;63.00
23231;DHT22;11784;49.818;8.632;2022-07-06T06:39:23;20.60;63.70
23231;DHT22;11784;49.818;8.632;2022-07-06T06:41:49;20.60;63.00
23231;DHT22;11784;49.818;8.632;2022-07-06T06:44:14;20.70;62.10
23231;DHT22;11784;49.818;8.632;2022-07-06T06:46:40;20.70;62.60
23231;DHT22;11784;49.818;8.632;2022-07-06T06:49:06;20.80;62.40
23231;DHT22;11784;49.818;8.632;2022-07-06T06:51:32;20.80;62.20
23231;DHT22;11784;49.818;8.632;2022-07-06T06:53:58;20.80;61.90
23231;DHT22;11784;49.818;8.632;2022-07-06T06:56:24;20.90;63.30
23231;DHT22;11784;49.818;8.632;2022-07-06T06:58:49;21.00;62.30
23231;DHT22;11784;49.818;8.632;2022-07-06T07:01:15;21.00;61.90
23231;DHT22;11784;49.818;8.632;2022-07-06T07:03:40;21.00;61.10
23231;DHT22;11784;49.818;8.632;2022-07-06T07:06:06;21.10;60.80
23231;DHT22;11784;49.818;8.632;2022-07-06T07:08:31;21.10;60.80
23231;DHT22;11784;49.818;8.632;2022-07-06T07:10:57;21.20;60.30
23231;DHT22;11784;49.818;8.632;2022-07-06T07:13:23;21.20;60.20
23231;DHT22;11784;49.818;8.632;2022-07-06T07:15:48;21.20;61.00
23231;DHT22;11784;49.818;8.632;2022-07-06T07:18:14;21.20;60.90
23231;DHT22;11784;49.818;8.632;2022-07-06T07:20:39;21.30;59.80
23231;DHT22;11784;49.818;8.632;2022-07-06T07:23:05;21.30;61.40
23231;DHT22;11784;49.818;8.632;2022-07-06T07:25:30;21.30;61.60
23231;DHT22;11784;49.818;8.632;2022-07-06T07:27:56;21.30;59.40
23231;DHT22;11784;49.818;8.632;2022-07-06T07:30:21;21.30;59.90
23231;DHT22;11784;49.818;8.632;2022-07-06T07:32:47;21.40;60.00
23231;DHT22;11784;49.818;8.632;2022-07-06T07:35:12;21.50;59.70
23231;DHT22;11784;49.818;8.632;2022-07-06T07:37:38;21.50;60.80
23231;DHT22;11784;49.818;8.632;2022-07-06T07:40:04;21.60;61.30
23231;DHT22;11784;49.818;8.632;2022-07-06T07:42:31;21.60;61.10
23231;DHT22;11784;49.818;8.632;2022-07-06T07:44:56;21.70;59.50
23231;DHT22;11784;49.818;8.632;2022-07-06T07:47:22;21.70;59.20
23231;DHT22;11784;49.818;8.632;2022-07-06T07:49:47;21.70;58.70
23231;DHT22;11784;49.818;8.632;2022-07-06T07:52:13;21.70;58.70
23231;DHT22;11784;49.818;8.632;2022-07-06T07:54:39;21.70;59.30
23231;DHT22;11784;49.818;8.632;2022-07-06T07:57:04;21.80;59.40
23231;DHT22;11784;49.818;8.632;2022-07-06T07:59:30;21.80;58.90
23231;DHT22;11784;49.818;8.632;2022-07-06T08:01:56;21.90;59.00
23231;DHT22;11784;49.818;8.632;2022-07-06T08:04:22;21.90;59.20
23231;DHT22;11784;49.818;8.632;2022-07-06T08:06:47;21.90;57.70
23231;DHT22;11784;49.818;8.632;2022-07-06T08:09:13;22.00;57.50
23231;DHT22;11784;49.818;8.632;2022-07-06T08:11:39;22.00;57.40
23231;DHT22;11784;49.818;8.632;2022-07-06T08:14:05;22.00;57.90
23231;DHT22;11784;49.818;8.632;2022-07-06T08:16:31;22.00;58.20
23231;DHT22;11784;49.818;8.632;2022-07-06T08:18:57;22.10;57.20
23231;DHT22;11784;49.818;8.632;2022-07-06T08:21:23;22.10;56.40
23231;DHT22;11784;49.818;8.632;2022-07-06T08:23:49;22.10;56.90
23231;DHT22;11784;49.818;8.632;2022-07-06T08:26:15;22.20;57.10
23231;DHT22;11784;49.818;8.632;2022-07-06T08:28:40;22.20;56.10
23231;DHT22;11784;49.818;8.632;2022-07-06T08:31:06;22.20;56.50
23231;DHT22;11784;49.818;8.632;2022-07-06T08:33:32;22.10;55.10
23231;DHT22;11784;49.818;8.632;2022-07-06T08:35:57;22.10;54.90
23231;DHT22;11784;49.818;8.632;2022-07-06T08:38:30;22.10;54.90
23231;DHT22;11784;49.818;8.632;2022-07-06T08:40:56;22.00;55.00
23231;DHT22;11784;49.818;8.632;2022-07-06T08:43:23;21.90;54.50
23231;DHT22;11784;49.818;8.632;2022-07-06T08:45:49;21.90;54.50
23231;DHT22;11784;49.818;8.632;2022-07-06T08:48:16;21.90;55.20
23231;DHT22;11784;49.818;8.632;2022-07-06T08:50:43;21.90;54.90
23231;DHT22;11784;49.818;8.632;2022-07-06T08:53:09;21.90;55.00
23231;DHT22;11784;49.818;8.632;2022-07-06T08:55:34;21.90;56.10
23231;DHT22;11784;49.818;8.632;2022-07-06T08:58:01;21.90;55.30
23231;DHT22;11784;49.818;8.632;2022-07-06T09:00:27;21.90;54.60
23231;DHT22;11784;49.818;8.632;2022-07-06T09:02:52;22.00;54.60
23231;DHT22;11784;49.818;8.632;2022-07-06T09:05:22;22.00;54.60
23231;DHT22;11784;49.818;8.632;2022-07-06T09:07:50;21.90;54.10
23231;DHT22;11784;49.818;8.632;2022-07-06T09:10:19;21.90;54.60
23231;DHT22;11784;49.818;8.632;2022-07-06T09:12:45;21.90;55.10
23231;DHT22;11784;49.818;8.632;2022-07-06T09:15:11;21.90;54.70
23231;DHT22;11784;49.818;8.632;2022-07-06T09:17:41;22.00;54.40
23231;DHT22;11784;49.818;8.632;2022-07-06T09:20:13;21.90;54.10
23231;DHT22;11784;49.818;8.632;2022-07-06T09:22:39;21.90;54.10
23231;DHT22;11784;49.818;8.632;2022-07-06T09:25:08;21.90;54.50
23231;DHT22;11784;49.818;8.632;2022-07-06T09:27:45;22.00;54.40
23231;DHT22;11784;49.818;8.632;2022-07-06T09:30:15;21.90;54.20
23231;DHT22;11784;49.818;8.632;2022-07-06T09:32:46;22.00;54.50
23231;DHT22;11784;49.818;8.632;2022-07-06T09:35:36;22.00;54.20
23231;DHT22;11784;49.818;8.632;2022-07-06T09:38:14;22.00;53.80
23231;DHT22;11784;49.818;8.632;2022-07-06T09:40:41;22.20;54.30
23231;DHT22;11784;49.818;8.632;2022-07-06T09:45:35;22.30;53.30
23231;DHT22;11784;49.818;8.632;2022-07-06T09:48:16;22.30;51.80
23231;DHT22;11784;49.818;8.632;2022-07-06T09:50:52;22.40;52.10
23231;DHT22;11784;49.818;8.632;2022-07-06T09:53:19;22.40;51.60
23231;DHT22;11784;49.818;8.632;2022-07-06T09:55:47;22.30;51.30
23231;DHT22;11784;49.818;8.632;2022-07-06T09:58:13;22.30;51.40
23231;DHT22;11784;49.818;8.632;2022-07-06T10:00:38;22.20;52.10
23231;DHT22;11784;49.818;8.632;2022-07-06T10:03:05;22.20;51.70
23231;DHT22;11784;49.818;8.632;2022-07-06T10:05:30;22.30;52.20
23231;DHT22;11784;49.818;8.632;2022-07-06T10:07:59;22.30;51.50
23231;DHT22;11784;49.818;8.632;2022-07-06T10:10:26;22.40;51.30
23231;DHT22;11784;49.818;8.632;2022-07-06T10:12:55;22.50;52.00
23231;DHT22;11784;49.818;8.632;2022-07-06T10:15:25;22.60;50.70
23231;DHT22;11784;49.818;8.632;2022-07-06T10:17:51;22.60;49.90
23231;DHT22;11784;49.818;8.632;2022-07-06T10:20:18;22.60;49.40
23231;DHT22;11784;49.818;8.632;2022-07-06T10:22:45;22.50;49.00
23231;DHT22;11784;49.818;8.632;2022-07-06T10:25:11;22.50;49.30
23231;DHT22;11784;49.818;8.632;2022-07-06T10:27:37;22.40;49.30
23231;DHT22;11784;49.818;8.632;2022-07-06T10:30:04;22.40;49.70
23231;DHT22;11784;49.818;8.632;2022-07-06T10:32:30;22.40;49.90
23231;DHT22;11784;49.818;8.632;2022-07-06T10:34:56;22.50;50.00
23231;DHT22;11784;49.818;8.632;2022-07-06T10:37:26;22.50;49.10
23231;DHT22;11784;49.818;8.632;2022-07-06T10:39:52;22.50;49.30
23231;DHT22;11784;49.818;8.632;2022-07-06T10:42:48;22.50;49.20
23231;DHT22;11784;49.818;8.632;2022-07-06T10:50:49;22.70;47.30
23231;DHT22;11784;49.818;8.632;2022-07-06T10:53:26;22.70;47.10
23231;DHT22;11784;49.818;8.632;2022-07-06T10:55:54;22.80;46.40
23231;DHT22;11784;49.818;8.632;2022-07-06T10:58:47;22.90;46.50
23231;DHT22;11784;49.818;8.632;2022-07-06T11:01:14;22.90;46.10
23231;DHT22;11784;49.818;8.632;2022-07-06T11:03:41;23.00;45.90
23231;DHT22;11784;49.818;8.632;2022-07-06T11:08:59;23.10;45.50
23231;DHT22;11784;49.818;8.632;2022-07-06T11:14:04;23.20;45.60
23231;DHT22;11784;49.818;8.632;2022-07-06T11:16:32;23.20;45.60
23231;DHT22;11784;49.818;8.632;2022-07-06T11:19:07;23.20;44.30
23231;DHT22;11784;49.818;8.632;2022-07-06T11:24:02;23.30;44.90
23231;DHT22;11784;49.818;8.632;2022-07-06T11:26:30;23.20;43.50
23231;DHT22;11784;49.818;8.632;2022-07-06T11:28:58;23.30;43.30
23231;DHT22;11784;49.818;8.632;2022-07-06T11:31:24;23.20;42.00
23231;DHT22;11784;49.818;8.632;2022-07-06T11:33:49;23.20;43.20
23231;DHT22;11784;49.818;8.632;2022-07-06T11:36:19;23.20;42.90
23231;DHT22;11784;49.818;8.632;2022-07-06T11:38:46;23.20;42.40
23231;DHT22;11784;49.818;8.632;2022-07-06T11:41:13;23.20;42.70
23231;DHT22;11784;49.818;8.632;2022-07-06T11:43:47;23.20;42.00
23231;DHT22;11784;49.818;8.632;2022-07-06T11:46:29;23.20;43.00
23231;DHT22;11784;49.818;8.632;2022-07-06T11:48:57;23.20;44.90
23231;DHT22;11784;49.818;8.632;2022-07-06T11:51:27;23.30;42.60
23231;DHT22;11784;49.818;8.632;2022-07-06T11:53:58;23.30;43.20
23231;DHT22;11784;49.818;8.632;2022-07-06T11:56:25;23.40;43.10
23231;DHT22;11784;49.818;8.632;2022-07-06T11:58:57;23.40;41.00
23231;DHT22;11784;49.818;8.632;2022-07-06T12:01:24;23.50;41.10
23231;DHT22;11784;49.818;8.632;2022-07-06T12:03:50;23.40;43.60
23231;DHT22;11784;49.818;8.632;2022-07-06T12:08:52;23.40;42.40
23231;DHT22;11784;49.818;8.632;2022-07-06T12:11:27;23.50;43.00
23231;DHT22;11784;49.818;8.632;2022-07-06T12:14:00;23.50;42.20
23231;DHT22;11784;49.818;8.632;2022-07-06T12:16:34;23.50;42.40
23231;DHT22;11784;49.818;8.632;2022-07-06T12:19:01;23.50;41.20
23231;DHT22;11784;49.818;8.632;2022-07-06T12:21:28;23.50;40.80
23231;DHT22;11784;49.818;8.632;2022-07-06T12:23:54;23.50;41.20
23231;DHT22;11784;49.818;8.632;2022-07-06T12:26:23;23.50;40.70
23231;DHT22;11784;49.818;8.632;2022-07-06T12:29:08;23.50;41.20
23231;DHT22;11784;49.818;8.632;2022-07-06T12:31:50;23.50;42.10
23231;DHT22;11784;49.818;8.632;2022-07-06T12:34:27;23.60;42.30
23231;DHT22;11784;49.818;8.632;2022-07-06T12:36:58;23.60;42.70
23231;DHT22;11784;49.818;8.632;2022-07-06T12:39:28;23.70;42.80
23231;DHT22;11784;49.818;8.632;2022-07-06T12:41:56;23.80;41.70
23231;DHT22;11784;49.818;8.632;2022-07-06T12:44:23;23.80;40.10
23231;DHT22;11784;49.818;8.632;2022-07-06T12:47:03;23.80;40.80
23231;DHT22;11784;49.818;8.632;2022-07-06T12:49:29;23.80;40.80
23231;DHT22;11784;49.818;8.632;2022-07-06T12:52:03;23.90;40.80
23231;DHT22;11784;49.818;8.632;2022-07-06T12:54:34;23.90;39.20
23231;DHT22;11784;49.818;8.632;2022-07-06T12:57:09;23.90;39.00
23231;DHT22;11784;49.818;8.632;2022-07-06T12:59:43;23.90;39.90
23231;DHT22;11784;49.818;8.632;2022-07-06T13:02:37;24.10;39.70
23231;DHT22;11784;49.818;8.632;2022-07-06T13:05:09;24.10;39.80
23231;DHT22;11784;49.818;8.632;2022-07-06T13:07:37;24.20;39.20
23231;DHT22;11784;49.818;8.632;2022-07-06T13:10:06;24.20;40.10
23231;DHT22;11784;49.818;8.632;2022-07-06T13:12:31;24.20;41.20
23231;DHT22;11784;49.818;8.632;2022-07-06T13:14:57;24.30;42.20
23231;DHT22;11784;49.818;8.632;2022-07-06T13:17:23;24.40;38.60
23231;DHT22;11784;49.818;8.632;2022-07-06T13:19:49;24.40;37.30
23231;DHT22;11784;49.818;8.632;2022-07-06T13:22:15;24.40;38.20
23231;DHT22;11784;49.818;8.632;2022-07-06T13:24:41;24.50;39.10
23231;DHT22;11784;49.818;8.632;2022-07-06T13:27:07;24.60;38.50
23231;DHT22;11784;49.818;8.632;2022-07-06T13:29:33;24.60;37.70
23231;DHT22;11784;49.818;8.632;2022-07-06T13:31:59;24.70;38.20
23231;DHT22;11784;49.818;8.632;2022-07-06T13:34:24;24.70;37.70
23231;DHT22;11784;49.818;8.632;2022-07-06T13:36:51;24.80;37.50
23231;DHT22;11784;49.818;8.632;2022-07-06T13:39:16;24.80;38.00
23231;DHT22;11784;49.818;8.632;2022-07-06T13:41:42;24.80;38.20
23231;DHT22;11784;49.818;8.632;2022-07-06T13:44:08;25.00;38.40
23231;DHT22;11784;49.818;8.632;2022-07-06T13:46:34;25.10;37.30
23231;DHT22;11784;49.818;8.632;2022-07-06T13:49:02;25.40;38.90
23231;DHT22;11784;49.818;8.632;2022-07-06T13:51:28;25.60;37.80
23231;DHT22;11784;49.818;8.632;2022-07-06T13:53:54;25.80;38.60
23231;DHT22;11784;49.818;8.632;2022-07-06T13:56:20;25.90;37.10
23231;DHT22;11784;49.818;8.632;2022-07-06T13:58:45;25.80;37.00
23231;DHT22;11784;49.818;8.632;2022-07-06T14:01:11;25.80;37.00
23231;DHT22;11784;49.818;8.632;2022-07-06T14:03:37;25.60;37.10
23231;DHT22;11784;49.818;8.632;2022-07-06T14:06:04;25.60;37.20
23231;DHT22;11784;49.818;8.632;2022-07-06T14:08:31;25.50;37.50
23231;DHT22;11784;49.818;8.632;2022-07-06T14:10:58;25.40;36.80
23231;DHT22;11784;49.818;8.632;2022-07-06T14:13:23;25.30;36.50
23231;DHT22;11784;49.818;8.632;2022-07-06T14:15:49;25.30;37.30
23231;DHT22;11784;49.818;8.632;2022-07-06T14:18:15;25.20;37.90
23231;DHT22;11784;49.818;8.632;2022-07-06T14:20:46;25.20;38.30
23231;DHT22;11784;49.818;8.632;2022-07-06T14:23:13;25.20;39.20
23231;DHT22;11784;49.818;8.632;2022-07-06T14:25:39;25.20;39.20
23231;DHT22;11784;49.818;8.632;2022-07-06T14:28:05;25.20;38.70
23231;DHT22;11784;49.818;8.632;2022-07-06T14:30:32;25.20;38.70
23231;DHT22;11784;49.818;8.632;2022-07-06T14:32:57;25.20;39.10
23231;DHT22;11784;49.818;8.632;2022-07-06T14:35:23;25.20;38.70
23231;DHT22;11784;49.818;8.632;2022-07-06T14:37:50;25.20;38.60
23231;DHT22;11784;49.818;8.632;2022-07-06T14:40:16;25.20;37.80
23231;DHT22;11784;49.818;8.632;2022-07-06T14:42:42;25.20;39.00
23231;DHT22;11784;49.818;8.632;2022-07-06T14:45:08;25.30;38.30
23231;DHT22;11784;49.818;8.632;2022-07-06T14:47:34;25.30;37.20
23231;DHT22;11784;49.818;8.632;2022-07-06T14:50:02;25.30;38.50
23231;DHT22;11784;49.818;8.632;2022-07-06T14:52:28;25.30;38.50
23231;DHT22;11784;49.818;8.632;2022-07-06T14:54:54;25.40;38.90
23231;DHT22;11784;49.818;8.632;2022-07-06T14:57:19;25.40;38.70
23231;DHT22;11784;49.818;8.632;2022-07-06T14:59:45;25.40;38.20
23231;DHT22;11784;49.818;8.632;2022-07-06T15:02:11;25.40;37.10
23231;DHT22;11784;49.818;8.632;2022-07-06T15:04:36;25.30;37.70
23231;DHT22;11784;49.818;8.632;2022-07-06T15:07:02;25.30;37.70
23231;DHT22;11784;49.818;8.632;2022-07-06T15:09:28;25.20;37.60
23231;DHT22;11784;49.818;8.632;2022-07-06T15:11:55;25.20;38.20
23231;DHT22;11784;49.818;8.632;2022-07-06T15:14:21;25.10;38.80
23231;DHT22;11784;49.818;8.632;2022-07-06T15:16:47;25.00;38.80
23231;DHT22;11784;49.818;8.632;2022-07-06T15:19:14;25.00;39.20
23231;DHT22;11784;49.818;8.632;2022-07-06T15:21:39;24.90;39.00
23231;DHT22;11784;49.818;8.632;2022-07-06T15:24:05;24.90;39.50
23231;DHT22;11784;49.818;8.632;2022-07-06T15:26:31;24.80;40.20
23231;DHT22;11784;49.818;8.632;2022-07-06T15:28:57;24.80;39.90
23231;DHT22;11784;49.818;8.632;2022-07-06T15:31:22;24.80;39.80
23231;DHT22;11784;49.818;8.632;2022-07-06T15:33:48;24.70;39.20
23231;DHT22;11784;49.818;8.632;2022-07-06T15:36:13;24.60;39.70
23231;DHT22;11784;49.818;8.632;2022-07-06T15:38:39;24.60;39.30
23231;DHT22;11784;49.818;8.632;2022-07-06T15:41:05;24.50;39.00
23231;DHT22;11784;49.818;8.632;2022-07-06T15:43:31;24.40;39.60
23231;DHT22;11784;49.818;8.632;2022-07-06T15:45:59;24.30;39.70
23231;DHT22;11784;49.818;8.632;2022-07-06T15:48:26;24.20;40.00